sensor_id;sensor_type;location;lat;lon;timestamp;temperature;humidity
14993;DHT22;7592;51.088;13.732;2023-09-30T00:04:06;21.60;99.90
14993;DHT22;7592;51.088;13.732;2023-09-30T00:08:59;21.30;99.90
14993;DHT22;7592;51.088;13.732;2023-09-30T00:13:51;21.20;99.90
14993;DHT22;7592;51.088;13.732;2023-09-30T00:18:44;21.20;99.90
14993;DHT22;7592;51.088;13.732;2023-09-30T00:23:37;21.10;99.90
14993;DHT22;7592;51.088;13.732;2023-09-30T00:28:29;21.10;99.90
14993;DHT22;7592;51.088;13.732;2023-09-30T00:33:22;21.00;99.90
14993;DHT22;7592;51.088;13.732;2023-09-30T00:38:15;20.90;99.90
14993;DHT22;7592;51.088;13.732;2023-09-30T00:43:07;20.80;99.90
14993;DHT22;7592;51.088;13.732;2023-09-30T00:48:09;20.60;99.90
14993;DHT22;7592;51.088;13.732;2023-09-30T00:53:02;20.60;99.90
14993;DHT22;7592;51.088;13.732;2023-09-30T00:57:54;20.60;99.90
14993;DHT22;7592;51.088;13.732;2023-09-30T01:02:47;20.50;99.90
14993;DHT22;7592;51.088;13.732;2023-09-30T01:14:27;20.40;99.90
14993;DHT22;7592;51.088;13.732;2023-09-30T01:19:29;20.10;99.90
14993;DHT22;7592;51.088;13.732;2023-09-30T01:24:22;19.90;99.90
14993;DHT22;7592;51.088;13.732;2023-09-30T01:29:14;19.70;99.90
14993;DHT22;7592;51.088;13.732;2023-09-30T01:34:06;19.40;99.90
14993;DHT22;7592;51.088;13.732;2023-09-30T01:38:59;19.30;99.90
14993;DHT22;7592;51.088;13.732;2023-09-30T01:43:55;19.20;99.90
14993;DHT22;7592;51.088;13.732;2023-09-30T01:48:49;19.00;99.90
14993;DHT22;7592;51.088;13.732;2023-09-30T01:53:41;19.00;99.90
14993;DHT22;7592;51.088;13.732;2023-09-30T01:58:34;19.00;99.90
14993;DHT22;7592;51.088;13.732;2023-09-30T02:03:27;18.90;99.90
14993;DHT22;7592;51.088;13.732;2023-09-30T02:08:19;18.70;99.90
14993;DHT22;7592;51.088;13.732;2023-09-30T02:13:11;18.70;99.90
14993;DHT22;7592;51.088;13.732;2023-09-30T02:18:04;18.50;99.90
14993;DHT22;7592;51.088;13.732;2023-09-30T02:22:57;18.50;99.90
14993;DHT22;7592;51.088;13.732;2023-09-30T02:27:51;18.50;99.90
14993;DHT22;7592;51.088;13.732;2023-09-30T02:32:44;18.60;99.90
14993;DHT22;7592;51.088;13.732;2023-09-30T02:37:38;18.60;99.90
14993;DHT22;7592;51.088;13.732;2023-09-30T02:42:32;18.50;99.90
14993;DHT22;7592;51.088;13.732;2023-09-30T02:47:24;18.50;99.90
14993;DHT22;7592;51.088;13.732;2023-09-30T02:52:16;18.50;99.90
14993;DHT22;7592;51.088;13.732;2023-09-30T02:57:08;18.50;99.90
14993;DHT22;7592;51.088;13.732;2023-09-30T03:02:02;18.40;99.90
14993;DHT22;7592;51.088;13.732;2023-09-30T03:06:55;18.50;99.90
14993;DHT22;7592;51.088;13.732;2023-09-30T03:11:49;18.40;99.90
14993;DHT22;7592;51.088;13.732;2023-09-30T03:16:41;18.40;99.90
14993;DHT22;7592;51.088;13.732;2023-09-30T03:21:35;18.30;99.90
14993;DHT22;7592;51.088;13.732;2023-09-30T03:26:29;18.20;99.90
14993;DHT22;7592;51.088;13.732;2023-09-30T03:31:22;17.90;99.90
14993;DHT22;7592;51.088;13.732;2023-09-30T03:36:14;17.70;99.90
14993;DHT22;7592;51.088;13.732;2023-09-30T03:41:07;17.40;99.90
14993;DHT22;7592;51.088;13.732;2023-09-30T03:46:00;17.30;99.90
14993;DHT22;7592;51.088;13.732;2023-09-30T03:50:52;17.30;99.90
14993;DHT22;7592;51.088;13.732;2023-09-30T03:55:46;17.40;99.90
14993;DHT22;7592;51.088;13.732;2023-09-30T04:00:38;17.40;99.90
14993;DHT22;7592;51.088;13.732;2023-09-30T04:05:31;17.40;99.90
14993;DHT22;7592;51.088;13.732;2023-09-30T04:10:28;17.50;99.90
14993;DHT22;7592;51.088;13.732;2023-09-30T04:15:22;17.50;99.90
14993;DHT22;7592;51.088;13.732;2023-09-30T04:20:14;17.30;99.90
14993;DHT22;7592;51.088;13.732;2023-09-30T04:25:12;17.10;99.90
14993;DHT22;7592;51.088;13.732;2023-09-30T04:30:05;16.80;99.90
14993;DHT22;7592;51.088;13.732;2023-09-30T04:35:01;16.50;99.90
14993;DHT22;7592;51.088;13.732;2023-09-30T04:39:53;16.20;99.90
14993;DHT22;7592;51.088;13.732;2023-09-30T04:44:45;16.00;99.90
14993;DHT22;7592;51.088;13.732;2023-09-30T04:49:38;15.90;99.90
14993;DHT22;7592;51.088;13.732;2023-09-30T04:54:30;15.80;99.90
14993;DHT22;7592;51.088;13.732;2023-09-30T04:59:22;15.70;99.90
14993;DHT22;7592;51.088;13.732;2023-09-30T05:04:16;15.60;99.90
14993;DHT22;7592;51.088;13.732;2023-09-30T05:09:09;15.70;99.90
14993;DHT22;7592;51.088;13.732;2023-09-30T05:14:02;15.80;99.90
14993;DHT22;7592;51.088;13.732;2023-09-30T05:18:57;16.00;99.90
14993;DHT22;7592;51.088;13.732;2023-09-30T05:23:49;16.10;99.90
14993;DHT22;7592;51.088;13.732;2023-09-30T05:28:42;16.30;99.90
14993;DHT22;7592;51.088;13.732;2023-09-30T05:33:34;16.50;99.90
14993;DHT22;7592;51.088;13.732;2023-09-30T05:38:28;16.60;99.90
14993;DHT22;7592;51.088;13.732;2023-09-30T05:43:21;16.80;99.90
14993;DHT22;7592;51.088;13.732;2023-09-30T05:48:13;16.90;99.90
14993;DHT22;7592;51.088;13.732;2023-09-30T05:53:06;17.20;99.90
14993;DHT22;7592;51.088;13.732;2023-09-30T05:57:58;17.30;99.90
14993;DHT22;7592;51.088;13.732;2023-09-30T06:02:53;17.40;99.90
14993;DHT22;7592;51.088;13.732;2023-09-30T06:07:51;17.60;99.90
14993;DHT22;7592;51.088;13.732;2023-09-30T06:12:46;17.80;99.90
14993;DHT22;7592;51.088;13.732;2023-09-30T06:17:39;17.90;99.90
14993;DHT22;7592;51.088;13.732;2023-09-30T06:22:31;18.00;99.90
14993;DHT22;7592;51.088;13.732;2023-09-30T06:27:23;18.00;99.90
14993;DHT22;7592;51.088;13.732;2023-09-30T06:32:15;18.10;99.90
14993;DHT22;7592;51.088;13.732;2023-09-30T06:37:08;18.20;99.90
14993;DHT22;7592;51.088;13.732;2023-09-30T06:42:00;18.10;99.90
14993;DHT22;7592;51.088;13.732;2023-09-30T06:46:52;18.20;99.90
14993;DHT22;7592;51.088;13.732;2023-09-30T06:51:47;18.80;99.90
14993;DHT22;7592;51.088;13.732;2023-09-30T06:56:39;21.80;99.90
14993;DHT22;7592;51.088;13.732;2023-09-30T07:01:33;23.80;99.90
14993;DHT22;7592;51.088;13.732;2023-09-30T07:06:25;24.10;99.90
14993;DHT22;7592;51.088;13.732;2023-09-30T07:11:27;22.90;99.90
14993;DHT22;7592;51.088;13.732;2023-09-30T07:16:21;23.00;99.90
14993;DHT22;7592;51.088;13.732;2023-09-30T07:21:13;22.50;99.90
14993;DHT22;7592;51.088;13.732;2023-09-30T07:26:05;22.60;99.90
14993;DHT22;7592;51.088;13.732;2023-09-30T07:30:57;23.10;99.90
14993;DHT22;7592;51.088;13.732;2023-09-30T07:35:50;25.80;99.90
14993;DHT22;7592;51.088;13.732;2023-09-30T07:40:42;25.60;99.90
14993;DHT22;7592;51.088;13.732;2023-09-30T07:45:34;24.40;99.90
14993;DHT22;7592;51.088;13.732;2023-09-30T07:50:26;24.50;99.90
14993;DHT22;7592;51.088;13.732;2023-09-30T07:55:18;27.20;97.30
14993;DHT22;7592;51.088;13.732;2023-09-30T08:00:12;26.50;96.30
14993;DHT22;7592;51.088;13.732;2023-09-30T08:05:08;25.80;96.70
14993;DHT22;7592;51.088;13.732;2023-09-30T08:10:02;25.00;96.80
14993;DHT22;7592;51.088;13.732;2023-09-30T08:14:57;24.20;98.40
14993;DHT22;7592;51.088;13.732;2023-09-30T08:19:50;23.70;99.40
14993;DHT22;7592;51.088;13.732;2023-09-30T08:24:42;23.40;99.80
14993;DHT22;7592;51.088;13.732;2023-09-30T08:29:34;22.60;99.90
14993;DHT22;7592;51.088;13.732;2023-09-30T08:34:30;22.40;99.90
14993;DHT22;7592;51.088;13.732;2023-09-30T08:39:22;22.90;99.90
14993;DHT22;7592;51.088;13.732;2023-09-30T08:44:15;23.20;99.90
14993;DHT22;7592;51.088;13.732;2023-09-30T08:49:08;23.60;99.50
14993;DHT22;7592;51.088;13.732;2023-09-30T08:54:01;23.70;98.20
14993;DHT22;7592;51.088;13.732;2023-09-30T08:59:00;23.70;97.80
14993;DHT22;7592;51.088;13.732;2023-09-30T09:03:53;24.20;98.30
14993;DHT22;7592;51.088;13.732;2023-09-30T09:08:45;25.70;93.60
14993;DHT22;7592;51.088;13.732;2023-09-30T09:13:50;25.50;93.50
14993;DHT22;7592;51.088;13.732;2023-09-30T09:18:45;25.20;92.00
14993;DHT22;7592;51.088;13.732;2023-09-30T09:23:43;24.00;93.90
14993;DHT22;7592;51.088;13.732;2023-09-30T09:28:37;23.80;94.40
14993;DHT22;7592;51.088;13.732;2023-09-30T09:33:36;23.50;95.30
14993;DHT22;7592;51.088;13.732;2023-09-30T09:38:44;24.60;94.30
14993;DHT22;7592;51.088;13.732;2023-09-30T09:43:37;26.80;90.90
14993;DHT22;7592;51.088;13.732;2023-09-30T09:48:33;30.40;79.50
14993;DHT22;7592;51.088;13.732;2023-09-30T09:53:26;31.40;69.60
14993;DHT22;7592;51.088;13.732;2023-09-30T09:58:20;29.00;70.20
14993;DHT22;7592;51.088;13.732;2023-09-30T10:03:13;27.60;74.30
14993;DHT22;7592;51.088;13.732;2023-09-30T10:08:14;28.90;69.20
14993;DHT22;7592;51.088;13.732;2023-09-30T10:13:06;28.90;66.40
14993;DHT22;7592;51.088;13.732;2023-09-30T10:18:03;28.90;67.10
14993;DHT22;7592;51.088;13.732;2023-09-30T10:33:25;33.50;56.60
14993;DHT22;7592;51.088;13.732;2023-09-30T10:43:33;31.80;55.80
14993;DHT22;7592;51.088;13.732;2023-09-30T10:53:18;30.60;58.50
14993;DHT22;7592;51.088;13.732;2023-09-30T10:58:13;30.00;59.00
14993;DHT22;7592;51.088;13.732;2023-09-30T11:03:05;30.50;56.20
14993;DHT22;7592;51.088;13.732;2023-09-30T11:08:01;32.50;54.30
14993;DHT22;7592;51.088;13.732;2023-09-30T11:12:58;31.80;55.00
14993;DHT22;7592;51.088;13.732;2023-09-30T11:17:56;29.80;57.60
14993;DHT22;7592;51.088;13.732;2023-09-30T11:23:04;26.80;61.00
14993;DHT22;7592;51.088;13.732;2023-09-30T11:28:15;24.90;66.70
14993;DHT22;7592;51.088;13.732;2023-09-30T11:33:07;23.90;70.70
14993;DHT22;7592;51.088;13.732;2023-09-30T11:38:00;25.40;66.00
14993;DHT22;7592;51.088;13.732;2023-09-30T11:43:08;26.40;63.10
14993;DHT22;7592;51.088;13.732;2023-09-30T11:48:19;26.20;64.60
14993;DHT22;7592;51.088;13.732;2023-09-30T11:53:18;25.40;67.20
14993;DHT22;7592;51.088;13.732;2023-09-30T11:58:12;24.40;68.00
14993;DHT22;7592;51.088;13.732;2023-09-30T12:03:10;23.30;71.70
14993;DHT22;7592;51.088;13.732;2023-09-30T12:08:03;22.80;73.60
14993;DHT22;7592;51.088;13.732;2023-09-30T12:12:55;22.50;74.60
14993;DHT22;7592;51.088;13.732;2023-09-30T12:17:47;23.00;72.80
14993;DHT22;7592;51.088;13.732;2023-09-30T12:22:40;23.50;72.20
14993;DHT22;7592;51.088;13.732;2023-09-30T12:27:32;23.90;71.70
14993;DHT22;7592;51.088;13.732;2023-09-30T12:32:24;23.90;71.10
14993;DHT22;7592;51.088;13.732;2023-09-30T12:37:17;23.90;70.20
14993;DHT22;7592;51.088;13.732;2023-09-30T12:42:10;24.10;69.60
14993;DHT22;7592;51.088;13.732;2023-09-30T12:47:05;23.90;70.40
14993;DHT22;7592;51.088;13.732;2023-09-30T12:51:57;23.60;70.30
14993;DHT22;7592;51.088;13.732;2023-09-30T12:56:53;22.70;72.20
14993;DHT22;7592;51.088;13.732;2023-09-30T13:01:45;22.40;73.30
14993;DHT22;7592;51.088;13.732;2023-09-30T13:06:40;22.40;72.00
14993;DHT22;7592;51.088;13.732;2023-09-30T13:11:33;22.50;72.40
14993;DHT22;7592;51.088;13.732;2023-09-30T13:16:28;23.00;73.20
14993;DHT22;7592;51.088;13.732;2023-09-30T13:21:20;23.20;72.20
14993;DHT22;7592;51.088;13.732;2023-09-30T13:26:13;23.40;72.40
14993;DHT22;7592;51.088;13.732;2023-09-30T13:31:05;23.40;71.20
14993;DHT22;7592;51.088;13.732;2023-09-30T13:35:57;23.40;72.10
14993;DHT22;7592;51.088;13.732;2023-09-30T13:40:50;22.90;72.30
14993;DHT22;7592;51.088;13.732;2023-09-30T13:45:42;22.50;74.10
14993;DHT22;7592;51.088;13.732;2023-09-30T13:50:34;22.40;74.80
14993;DHT22;7592;51.088;13.732;2023-09-30T13:55:27;22.20;74.50
14993;DHT22;7592;51.088;13.732;2023-09-30T14:00:19;21.90;73.90
14993;DHT22;7592;51.088;13.732;2023-09-30T14:05:11;21.90;75.00
14993;DHT22;7592;51.088;13.732;2023-09-30T14:10:05;22.00;75.60
14993;DHT22;7592;51.088;13.732;2023-09-30T14:14:58;21.90;74.10
14993;DHT22;7592;51.088;13.732;2023-09-30T14:19:50;21.70;74.80
14993;DHT22;7592;51.088;13.732;2023-09-30T14:24:42;21.50;74.40
14993;DHT22;7592;51.088;13.732;2023-09-30T14:29:34;21.30;74.60
14993;DHT22;7592;51.088;13.732;2023-09-30T14:34:27;21.10;76.10
14993;DHT22;7592;51.088;13.732;2023-09-30T14:39:19;21.00;76.60
14993;DHT22;7592;51.088;13.732;2023-09-30T14:44:11;21.00;76.00
14993;DHT22;7592;51.088;13.732;2023-09-30T14:49:04;21.00;76.70
14993;DHT22;7592;51.088;13.732;2023-09-30T14:53:58;20.80;76.30
14993;DHT22;7592;51.088;13.732;2023-09-30T14:58:51;20.80;77.40
14993;DHT22;7592;51.088;13.732;2023-09-30T15:03:43;20.70;78.60
14993;DHT22;7592;51.088;13.732;2023-09-30T15:08:36;20.70;77.80
14993;DHT22;7592;51.088;13.732;2023-09-30T15:13:29;20.60;79.10
14993;DHT22;7592;51.088;13.732;2023-09-30T15:18:21;20.60;79.00
14993;DHT22;7592;51.088;13.732;2023-09-30T15:23:13;20.50;79.70
14993;DHT22;7592;51.088;13.732;2023-09-30T15:28:06;20.30;79.80
14993;DHT22;7592;51.088;13.732;2023-09-30T15:32:58;20.20;80.20
14993;DHT22;7592;51.088;13.732;2023-09-30T15:37:51;20.00;80.20
14993;DHT22;7592;51.088;13.732;2023-09-30T15:42:43;19.90;80.50
14993;DHT22;7592;51.088;13.732;2023-09-30T15:47:37;19.80;79.90
14993;DHT22;7592;51.088;13.732;2023-09-30T15:52:29;19.70;81.40
14993;DHT22;7592;51.088;13.732;2023-09-30T15:57:22;19.50;82.80
14993;DHT22;7592;51.088;13.732;2023-09-30T16:02:15;19.40;82.70
14993;DHT22;7592;51.088;13.732;2023-09-30T16:07:07;19.20;83.80
14993;DHT22;7592;51.088;13.732;2023-09-30T16:12:01;19.00;84.60
14993;DHT22;7592;51.088;13.732;2023-09-30T16:16:54;18.80;85.70
14993;DHT22;7592;51.088;13.732;2023-09-30T16:21:47;18.60;87.00
14993;DHT22;7592;51.088;13.732;2023-09-30T16:26:41;18.40;88.20
14993;DHT22;7592;51.088;13.732;2023-09-30T16:31:34;18.20;90.20
14993;DHT22;7592;51.088;13.732;2023-09-30T16:36:26;18.00;90.40
14993;DHT22;7592;51.088;13.732;2023-09-30T16:41:19;17.90;90.60
14993;DHT22;7592;51.088;13.732;2023-09-30T16:46:11;17.70;91.00
14993;DHT22;7592;51.088;13.732;2023-09-30T16:51:08;17.50;92.00
14993;DHT22;7592;51.088;13.732;2023-09-30T16:56:04;17.40;92.70
14993;DHT22;7592;51.088;13.732;2023-09-30T17:00:57;17.20;94.10
14993;DHT22;7592;51.088;13.732;2023-09-30T17:05:51;17.00;95.80
14993;DHT22;7592;51.088;13.732;2023-09-30T17:10:43;16.90;98.80
14993;DHT22;7592;51.088;13.732;2023-09-30T17:15:41;16.80;99.90
14993;DHT22;7592;51.088;13.732;2023-09-30T17:20:34;16.70;99.90
14993;DHT22;7592;51.088;13.732;2023-09-30T17:25:29;16.50;99.90
14993;DHT22;7592;51.088;13.732;2023-09-30T17:30:23;16.30;99.90
14993;DHT22;7592;51.088;13.732;2023-09-30T17:35:39;16.10;99.90
14993;DHT22;7592;51.088;13.732;2023-09-30T17:40:32;16.00;99.90
14993;DHT22;7592;51.088;13.732;2023-09-30T17:45:24;15.80;99.90
14993;DHT22;7592;51.088;13.732;2023-09-30T17:50:16;15.70;99.90
14993;DHT22;7592;51.088;13.732;2023-09-30T17:55:08;15.60;99.90
14993;DHT22;7592;51.088;13.732;2023-09-30T18:00:01;15.50;99.90
14993;DHT22;7592;51.088;13.732;2023-09-30T18:04:58;15.40;99.90
14993;DHT22;7592;51.088;13.732;2023-09-30T18:09:51;15.30;99.90
14993;DHT22;7592;51.088;13.732;2023-09-30T18:14:43;15.10;99.90
14993;DHT22;7592;51.088;13.732;2023-09-30T18:19:35;14.90;99.90
14993;DHT22;7592;51.088;13.732;2023-09-30T18:24:28;14.80;99.90
14993;DHT22;7592;51.088;13.732;2023-09-30T18:29:20;14.70;99.90
14993;DHT22;7592;51.088;13.732;2023-09-30T18:34:13;14.60;99.90
14993;DHT22;7592;51.088;13.732;2023-09-30T18:39:06;14.50;99.90
14993;DHT22;7592;51.088;13.732;2023-09-30T18:44:16;14.40;99.90
14993;DHT22;7592;51.088;13.732;2023-09-30T18:49:08;14.30;99.90
14993;DHT22;7592;51.088;13.732;2023-09-30T18:54:01;14.10;99.90
14993;DHT22;7592;51.088;13.732;2023-09-30T18:58:53;14.10;99.90
14993;DHT22;7592;51.088;13.732;2023-09-30T19:03:45;14.10;99.90
14993;DHT22;7592;51.088;13.732;2023-09-30T19:08:37;13.90;99.90
14993;DHT22;7592;51.088;13.732;2023-09-30T19:13:30;13.70;99.90
14993;DHT22;7592;51.088;13.732;2023-09-30T19:18:23;13.70;99.90
14993;DHT22;7592;51.088;13.732;2023-09-30T19:23:15;13.60;99.90
14993;DHT22;7592;51.088;13.732;2023-09-30T19:28:08;13.50;99.90
14993;DHT22;7592;51.088;13.732;2023-09-30T19:33:01;13.40;99.90
14993;DHT22;7592;51.088;13.732;2023-09-30T19:37:55;13.40;99.90
14993;DHT22;7592;51.088;13.732;2023-09-30T19:42:47;13.50;99.90
14993;DHT22;7592;51.088;13.732;2023-09-30T19:47:39;13.30;99.90
14993;DHT22;7592;51.088;13.732;2023-09-30T19:52:32;13.00;99.90
14993;DHT22;7592;51.088;13.732;2023-09-30T19:57:24;13.00;99.90
14993;DHT22;7592;51.088;13.732;2023-09-30T20:02:16;13.00;99.90
14993;DHT22;7592;51.088;13.732;2023-09-30T20:07:10;12.80;99.90
14993;DHT22;7592;51.088;13.732;2023-09-30T20:12:04;12.60;99.90
14993;DHT22;7592;51.088;13.732;2023-09-30T20:16:58;12.60;99.90
14993;DHT22;7592;51.088;13.732;2023-09-30T20:21:50;12.60;99.90
14993;DHT22;7592;51.088;13.732;2023-09-30T20:26:43;12.50;99.90
14993;DHT22;7592;51.088;13.732;2023-09-30T20:31:35;12.50;99.90
14993;DHT22;7592;51.088;13.732;2023-09-30T20:36:31;12.40;99.90
14993;DHT22;7592;51.088;13.732;2023-09-30T20:41:23;12.40;99.90
14993;DHT22;7592;51.088;13.732;2023-09-30T20:46:16;12.40;99.90
14993;DHT22;7592;51.088;13.732;2023-09-30T20:51:08;12.40;99.90
14993;DHT22;7592;51.088;13.732;2023-09-30T20:56:01;12.30;99.90
14993;DHT22;7592;51.088;13.732;2023-09-30T21:00:53;12.30;99.90
14993;DHT22;7592;51.088;13.732;2023-09-30T21:05:47;12.30;99.90
14993;DHT22;7592;51.088;13.732;2023-09-30T21:10:39;12.30;99.90
14993;DHT22;7592;51.088;13.732;2023-09-30T21:15:32;12.20;99.90
14993;DHT22;7592;51.088;13.732;2023-09-30T21:20:26;12.20;99.90
14993;DHT22;7592;51.088;13.732;2023-09-30T21:25:18;12.10;99.90
14993;DHT22;7592;51.088;13.732;2023-09-30T21:30:11;12.10;99.90
14993;DHT22;7592;51.088;13.732;2023-09-30T21:35:05;12.10;99.90
14993;DHT22;7592;51.088;13.732;2023-09-30T21:39:57;12.10;99.90
14993;DHT22;7592;51.088;13.732;2023-09-30T21:44:49;12.10;99.90
14993;DHT22;7592;51.088;13.732;2023-09-30T21:49:41;12.00;99.90
14993;DHT22;7592;51.088;13.732;2023-09-30T21:54:33;12.00;99.90
14993;DHT22;7592;51.088;13.732;2023-09-30T21:59:25;12.10;99.90
14993;DHT22;7592;51.088;13.732;2023-09-30T22:04:18;12.00;99.90
14993;DHT22;7592;51.088;13.732;2023-09-30T22:09:10;12.00;99.90
14993;DHT22;7592;51.088;13.732;2023-09-30T22:14:02;12.10;99.90
14993;DHT22;7592;51.088;13.732;2023-09-30T22:18:57;12.20;99.90
14993;DHT22;7592;51.088;13.732;2023-09-30T22:23:50;12.20;99.90
14993;DHT22;7592;51.088;13.732;2023-09-30T22:28:42;12.10;99.90
14993;DHT22;7592;51.088;13.732;2023-09-30T22:33:35;12.00;99.90
14993;DHT22;7592;51.088;13.732;2023-09-30T22:38:28;11.90;99.90
14993;DHT22;7592;51.088;13.732;2023-09-30T22:43:20;11.80;99.90
14993;DHT22;7592;51.088;13.732;2023-09-30T22:48:13;11.80;99.90
14993;DHT22;7592;51.088;13.732;2023-09-30T22:53:06;11.70;99.90
14993;DHT22;7592;51.088;13.732;2023-09-30T22:57:59;11.70;99.90
14993;DHT22;7592;51.088;13.732;2023-09-30T23:02:51;11.70;99.90
14993;DHT22;7592;51.088;13.732;2023-09-30T23:07:44;11.70;99.90
14993;DHT22;7592;51.088;13.732;2023-09-30T23:12:37;11.80;99.90
14993;DHT22;7592;51.088;13.732;2023-09-30T23:17:32;11.80;99.90
14993;DHT22;7592;51.088;13.732;2023-09-30T23:22:28;11.70;99.90
14993;DHT22;7592;51.088;13.732;2023-09-30T23:27:20;11.70;99.90
14993;DHT22;7592;51.088;13.732;2023-09-30T23:32:12;11.70;99.90
14993;DHT22;7592;51.088;13.732;2023-09-30T23:37:05;11.50;99.90
14993;DHT22;7592;51.088;13.732;2023-09-30T23:41:59;11.50;99.90
14993;DHT22;7592;51.088;13.732;2023-09-30T23:46:52;11.40;99.90
14993;DHT22;7592;51.088;13.732;2023-09-30T23:51:45;11.60;99.90
14993;DHT22;7592;51.088;13.732;2023-09-30T23:56:37;11.60;99.90
